Terminal Aerodrome Forecast
Issued by NWS

Home | Current Version | Previous Version | Graphics & Text | Print | Product List | Glossary On
Versions: 1 2 3 4 5 6 7 8 9 10 11 12 13 14 15 16
778
FTUS43 KMPX 080537
TAFRNH
TAF
KRNH 080537Z 0806/0906 31018G24KT 6SM -SN BLSN SCT020 OVC040
      TEMPO 0806/0810 3SM -SN BLSN OVC020
     FM081400 33020G32KT 4SM BLSN OVC020
     FM082000 33019G27KT P6SM BKN020=

USA.gov is the U.S. government's official web portal to all federal, state and local government web resources and services.